Time,TemperatureF,DewpointF,PressureIn,WindDirection,WindDirectionDegrees,WindSpeedMPH,WindSpeedGustMPH,Humidity,HourlyPrecipIn,Conditions,Clouds,dailyrainin,SoftwareType,DateUTC
2013-03-29 00:04:00,40.8,31.0,30.02,ESE,108,0.0,-999.0,69,-99.99,,,0.02,weatherlink.com 1.10,2013-03-29 04:04:00,
2013-03-29 00:17:00,40.9,31.0,30.02,ESE,108,0.0,-999.0,69,-99.99,,,0.02,weatherlink.com 1.10,2013-03-29 04:17:00,
2013-03-29 00:32:00,40.7,31.0,30.02,ESE,117,2.0,-999.0,68,-99.99,,,0.00,weatherlink.com 1.10,2013-03-29 04:32:00,
2013-03-29 00:47:00,40.8,31.0,30.02,SE,126,1.0,-999.0,68,-99.99,,,0.00,weatherlink.com 1.10,2013-03-29 04:47:00,
2013-03-29 01:04:00,40.9,31.0,30.02,SE,143,0.0,-999.0,68,-99.99,,,0.00,weatherlink.com 1.10,2013-03-29 05:04:00,
2013-03-29 01:17:00,41.0,31.0,30.02,SE,143,0.0,-999.0,68,-99.99,,,0.00,weatherlink.com 1.10,2013-03-29 05:17:00,
2013-03-29 01:32:00,41.3,32.0,30.02,SE,144,0.0,-999.0,69,-99.99,,,0.00,weatherlink.com 1.10,2013-03-29 05:32:00,
2013-03-29 01:47:00,41.2,32.0,30.02,SSE,147,1.0,-999.0,69,-99.99,,,0.00,weatherlink.com 1.10,2013-03-29 05:47:00,
2013-03-29 02:04:00,41.1,32.0,30.02,SSE,149,0.0,-999.0,69,-99.99,,,0.00,weatherlink.com 1.10,2013-03-29 06:04:00,
2013-03-29 02:17:00,40.8,31.0,30.01,SSE,149,0.0,-999.0,69,-99.99,,,0.00,weatherlink.com 1.10,2013-03-29 06:17:00,
2013-03-29 02:32:00,40.3,30.0,30.01,South,169,1.0,-999.0,68,-99.99,,,0.00,weatherlink.com 1.10,2013-03-29 06:32:00,
2013-03-29 02:47:00,39.7,30.0,30.01,South,170,0.0,-999.0,68,-99.99,,,0.00,weatherlink.com 1.10,2013-03-29 06:47:00,
2013-03-29 03:04:00,39.4,30.0,30.02,South,170,0.0,-999.0,68,-99.99,,,0.00,weatherlink.com 1.10,2013-03-29 07:04:00,
2013-03-29 03:17:00,39.0,29.0,30.02,South,170,0.0,-999.0,68,-99.99,,,0.00,weatherlink.com 1.10,2013-03-29 07:17:00,
2013-03-29 03:32:00,38.9,29.0,30.01,South,170,0.0,-999.0,67,-99.99,,,0.00,weatherlink.com 1.10,2013-03-29 07:32:00,
2013-03-29 03:47:00,38.9,29.0,30.01,South,187,0.0,-999.0,68,-99.99,,,0.00,weatherlink.com 1.10,2013-03-29 07:47:00,
2013-03-29 04:04:00,38.4,29.0,30.01,South,187,0.0,-999.0,68,-99.99,,,0.00,weatherlink.com 1.10,2013-03-29 08:04:00,
2013-03-29 04:17:00,38.1,28.0,30.01,WNW,285,0.0,-999.0,67,-99.99,,,0.00,weatherlink.com 1.10,2013-03-29 08:17:00,
2013-03-29 04:32:00,38.3,28.0,30.01,WNW,301,0.0,-999.0,67,-99.99,,,0.00,weatherlink.com 1.10,2013-03-29 08:32:00,
2013-03-29 04:47:00,38.1,28.0,30.01,WNW,297,0.0,-999.0,67,-99.99,,,0.00,weatherlink.com 1.10,2013-03-29 08:47:00,
2013-03-29 05:04:00,37.9,28.0,30.02,WNW,296,0.0,-999.0,67,-99.99,,,0.00,weatherlink.com 1.10,2013-03-29 09:04:00,
2013-03-29 05:17:00,37.9,28.0,30.02,WNW,296,1.0,-999.0,67,-99.99,,,0.00,weatherlink.com 1.10,2013-03-29 09:17:00,
2013-03-29 05:32:00,37.8,28.0,30.02,WNW,293,0.0,-999.0,67,-99.99,,,0.00,weatherlink.com 1.10,2013-03-29 09:32:00,
2013-03-29 05:47:00,37.8,28.0,30.02,WNW,292,1.0,-999.0,68,-99.99,,,0.00,weatherlink.com 1.10,2013-03-29 09:47:00,
2013-03-29 06:04:00,37.4,27.0,30.02,WNW,291,0.0,-999.0,67,-99.99,,,0.00,weatherlink.com 1.10,2013-03-29 10:04:00,
2013-03-29 06:17:00,37.3,27.0,30.02,WNW,285,0.0,-999.0,67,-99.99,,,0.00,weatherlink.com 1.10,2013-03-29 10:17:00,
2013-03-29 06:32:00,37.3,27.0,30.02,WNW,289,1.0,-999.0,67,-99.99,,,0.00,weatherlink.com 1.10,2013-03-29 10:32:00,
2013-03-29 06:47:00,37.7,28.0,30.03,West,281,0.0,-999.0,67,-99.99,,,0.00,weatherlink.com 1.10,2013-03-29 10:47:00,
2013-03-29 07:04:00,37.9,28.0,30.03,West,281,1.0,-999.0,67,-99.99,,,0.00,weatherlink.com 1.10,2013-03-29 11:04:00,
2013-03-29 07:17:00,38.6,28.0,30.04,WNW,284,0.0,-999.0,67,-99.99,,,0.00,weatherlink.com 1.10,2013-03-29 11:17:00,
2013-03-29 07:32:00,39.3,29.0,30.04,SW,231,2.0,-999.0,68,-99.99,,,0.00,weatherlink.com 1.10,2013-03-29 11:32:00,
2013-03-29 07:47:00,40.3,31.0,30.04,West,265,0.0,-999.0,69,-99.99,,,0.00,weatherlink.com 1.10,2013-03-29 11:47:00,
2013-03-29 08:04:00,41.9,32.0,30.04,WNW,286,2.0,-999.0,69,-99.99,,,0.00,weatherlink.com 1.10,2013-03-29 12:04:00,
2013-03-29 08:17:00,43.5,34.0,30.04,WSW,251,0.0,-999.0,70,-99.99,,,0.00,weatherlink.com 1.10,2013-03-29 12:17:00,
2013-03-29 08:32:00,44.8,35.0,30.04,West,262,2.0,-999.0,69,-99.99,,,0.00,weatherlink.com 1.10,2013-03-29 12:32:00,
2013-03-29 08:47:00,46.5,36.0,30.04,NNW,330,1.0,-999.0,68,-99.99,,,0.00,weatherlink.com 1.10,2013-03-29 12:47:00,
2013-03-29 09:04:00,47.6,37.0,30.04,NNW,331,1.0,-999.0,67,-99.99,,,0.00,weatherlink.com 1.10,2013-03-29 13:04:00,
2013-03-29 09:17:00,48.7,37.0,30.04,West,266,2.0,-999.0,65,-99.99,,,0.00,weatherlink.com 1.10,2013-03-29 13:17:00,
2013-03-29 09:32:00,49.9,38.0,30.04,NW,310,5.0,-999.0,64,-99.99,,,0.00,weatherlink.com 1.10,2013-03-29 13:32:00,
2013-03-29 09:47:00,50.1,38.0,30.03,NNW,329,0.0,-999.0,64,-99.99,,,0.00,weatherlink.com 1.10,2013-03-29 13:47:00,
2013-03-29 10:04:00,52.0,39.0,30.03,NNW,335,0.0,-999.0,62,-99.99,,,0.00,weatherlink.com 1.10,2013-03-29 14:04:00,
2013-03-29 10:17:00,52.1,39.0,30.03,West,266,3.0,-999.0,62,-99.99,,,0.00,weatherlink.com 1.10,2013-03-29 14:17:00,
2013-03-29 10:32:00,52.4,40.0,30.03,NNW,335,0.0,-999.0,62,-99.99,,,0.00,weatherlink.com 1.10,2013-03-29 14:32:00,
2013-03-29 10:47:00,52.6,39.0,30.03,SW,222,1.0,-999.0,61,-99.99,,,0.00,weatherlink.com 1.10,2013-03-29 14:47:00,
2013-03-29 11:04:00,53.2,39.0,30.03,SSW,193,6.0,-999.0,60,-99.99,,,0.00,weatherlink.com 1.10,2013-03-29 15:04:00,
2013-03-29 11:17:00,54.1,40.0,30.03,WNW,303,0.0,-999.0,59,-99.99,,,0.00,weatherlink.com 1.10,2013-03-29 15:17:00,
2013-03-29 11:32:00,55.1,40.0,30.02,SSW,210,3.0,-999.0,57,-99.99,,,0.00,weatherlink.com 1.10,2013-03-29 15:32:00,
2013-03-29 11:47:00,55.2,40.0,30.02,NW,321,0.0,-999.0,58,-99.99,,,0.00,weatherlink.com 1.10,2013-03-29 15:47:00,
2013-03-29 12:04:00,56.7,40.0,30.02,NNW,330,5.0,-999.0,54,-99.99,,,0.00,weatherlink.com 1.10,2013-03-29 16:04:00,
2013-03-29 12:17:00,57.7,40.0,30.01,NW,309,0.0,-999.0,52,-99.99,,,0.00,weatherlink.com 1.10,2013-03-29 16:17:00,
2013-03-29 12:32:00,55.1,41.0,30.01,SSE,166,4.0,-999.0,60,-99.99,,,0.00,weatherlink.com 1.10,2013-03-29 16:32:00,
2013-03-29 12:47:00,49.8,40.0,30.01,SE,137,1.0,-999.0,68,-99.99,,,0.00,weatherlink.com 1.10,2013-03-29 16:47:00,
2013-03-29 13:04:00,49.3,39.0,30.01,SSW,193,9.0,-999.0,67,-99.99,,,0.00,weatherlink.com 1.10,2013-03-29 17:04:00,
2013-03-29 13:17:00,47.9,38.0,30.00,SSW,196,4.0,-999.0,68,-99.99,,,0.00,weatherlink.com 1.10,2013-03-29 17:17:00,
2013-03-29 13:47:00,46.4,36.0,30.00,SSW,205,1.0,-999.0,67,-99.99,,,0.01,weatherlink.com 1.10,2013-03-29 17:47:00,
2013-03-29 14:04:00,46.4,36.0,29.99,SSW,195,2.0,-999.0,66,-99.99,,,0.01,weatherlink.com 1.10,2013-03-29 18:04:00,
2013-03-29 14:17:00,48.3,38.0,29.99,SW,214,9.0,-999.0,67,-99.99,,,0.01,weatherlink.com 1.10,2013-03-29 18:17:00,
2013-03-29 14:32:00,50.6,40.0,29.98,SSW,200,9.0,-999.0,68,-99.99,,,0.01,weatherlink.com 1.10,2013-03-29 18:32:00,
2013-03-29 14:47:00,51.0,40.0,29.98,SSW,205,11.0,-999.0,65,-99.99,,,0.01,weatherlink.com 1.10,2013-03-29 18:47:00,
2013-03-29 15:04:00,49.7,39.0,29.98,SSW,205,5.0,-999.0,68,-99.99,,,0.01,weatherlink.com 1.10,2013-03-29 19:04:00,
2013-03-29 15:17:00,49.4,39.0,29.98,SSW,193,11.0,-999.0,67,-99.99,,,0.01,weatherlink.com 1.10,2013-03-29 19:17:00,
2013-03-29 15:32:00,48.5,38.0,29.99,SSW,200,10.0,-999.0,67,-99.99,,,0.01,weatherlink.com 1.10,2013-03-29 19:32:00,
2013-03-29 15:47:00,48.5,39.0,29.99,SSW,210,9.0,-999.0,69,-99.99,,,0.01,weatherlink.com 1.10,2013-03-29 19:47:00,
2013-03-29 16:04:00,48.6,39.0,29.98,SSW,205,9.0,-999.0,69,-99.99,,,0.01,weatherlink.com 1.10,2013-03-29 20:04:00,
2013-03-29 16:17:00,49.2,39.0,29.98,SSW,200,10.0,-999.0,68,-99.99,,,0.01,weatherlink.com 1.10,2013-03-29 20:17:00,
2013-03-29 16:32:00,48.6,38.0,29.98,SSW,195,12.0,-999.0,66,-99.99,,,0.01,weatherlink.com 1.10,2013-03-29 20:32:00,
2013-03-29 16:47:00,48.9,38.0,29.98,SSW,200,10.0,-999.0,66,-99.99,,,0.01,weatherlink.com 1.10,2013-03-29 20:47:00,
2013-03-29 17:04:00,48.6,38.0,29.98,SSW,210,10.0,-999.0,67,-99.99,,,0.01,weatherlink.com 1.10,2013-03-29 21:04:00,
2013-03-29 17:17:00,48.7,38.0,29.98,SSW,195,13.0,-999.0,67,-99.99,,,0.01,weatherlink.com 1.10,2013-03-29 21:17:00,
2013-03-29 17:32:00,48.4,38.0,29.98,SSW,194,12.0,-999.0,68,-99.99,,,0.01,weatherlink.com 1.10,2013-03-29 21:32:00,
2013-03-29 17:47:00,47.8,38.0,29.98,SSW,200,6.0,-999.0,69,-99.99,,,0.01,weatherlink.com 1.10,2013-03-29 21:47:00,
2013-03-29 18:04:00,47.1,37.0,29.99,SSW,205,4.0,-999.0,69,-99.99,,,0.01,weatherlink.com 1.10,2013-03-29 22:04:00,
2013-03-29 18:17:00,46.7,37.0,29.99,SSW,205,0.0,-999.0,69,-99.99,,,0.01,weatherlink.com 1.10,2013-03-29 22:17:00,
2013-03-29 18:32:00,45.6,36.0,29.99,SSW,200,4.0,-999.0,69,-99.99,,,0.01,weatherlink.com 1.10,2013-03-29 22:32:00,
2013-03-29 18:47:00,45.0,35.0,29.99,SSW,200,0.0,-999.0,68,-99.99,,,0.01,weatherlink.com 1.10,2013-03-29 22:47:00,
2013-03-29 19:04:00,44.6,34.0,29.99,SSW,200,0.0,-999.0,67,-99.99,,,0.01,weatherlink.com 1.10,2013-03-29 23:04:00,
2013-03-29 19:17:00,44.0,33.0,29.99,SSW,200,2.0,-999.0,65,-99.99,,,0.01,weatherlink.com 1.10,2013-03-29 23:17:00,
2013-03-29 19:32:00,43.6,32.0,29.99,SSW,200,0.0,-999.0,63,-99.99,,,0.01,weatherlink.com 1.10,2013-03-29 23:32:00,
2013-03-29 19:47:00,43.5,31.0,29.99,SSW,200,0.0,-999.0,62,-99.99,,,0.01,weatherlink.com 1.10,2013-03-29 23:47:00,
2013-03-29 20:04:00,43.4,30.0,30.00,SSW,200,0.0,-999.0,60,-99.99,,,0.01,weatherlink.com 1.10,2013-03-30 00:04:00,
2013-03-29 20:17:00,43.1,28.0,30.01,SSW,200,0.0,-999.0,56,-99.99,,,0.01,weatherlink.com 1.10,2013-03-30 00:17:00,
2013-03-29 20:32:00,42.8,27.0,30.01,SSW,200,0.0,-999.0,54,-99.99,,,0.01,weatherlink.com 1.10,2013-03-30 00:32:00,
2013-03-29 20:47:00,42.9,28.0,30.02,SSW,200,0.0,-999.0,57,-99.99,,,0.01,weatherlink.com 1.10,2013-03-30 00:47:00,
2013-03-29 21:04:00,44.2,33.0,30.02,SSW,200,0.0,-999.0,64,-99.99,,,0.01,weatherlink.com 1.10,2013-03-30 01:04:00,
2013-03-29 21:17:00,45.5,35.0,30.01,SSW,200,0.0,-999.0,67,-99.99,,,0.01,weatherlink.com 1.10,2013-03-30 01:17:00,
2013-03-29 21:32:00,45.2,34.0,30.02,SSW,200,0.0,-999.0,66,-99.99,,,0.01,weatherlink.com 1.10,2013-03-30 01:32:00,
2013-03-29 21:48:00,44.4,34.0,30.02,SSW,200,0.0,-999.0,67,-99.99,,,0.01,weatherlink.com 1.10,2013-03-30 01:48:00,
2013-03-29 22:04:00,43.7,33.0,30.02,SSW,200,0.0,-999.0,67,-99.99,,,0.01,weatherlink.com 1.10,2013-03-30 02:04:00,
2013-03-29 22:17:00,43.3,33.0,30.02,SSW,200,0.0,-999.0,67,-99.99,,,0.01,weatherlink.com 1.10,2013-03-30 02:17:00,
2013-03-29 22:32:00,43.0,33.0,30.03,SSW,200,0.0,-999.0,68,-99.99,,,0.01,weatherlink.com 1.10,2013-03-30 02:32:00,
2013-03-29 22:47:00,42.4,32.0,30.03,SSW,200,0.0,-999.0,68,-99.99,,,0.01,weatherlink.com 1.10,2013-03-30 02:47:00,
2013-03-29 23:04:00,42.8,33.0,30.03,SSW,200,0.0,-999.0,69,-99.99,,,0.01,weatherlink.com 1.10,2013-03-30 03:04:00,
2013-03-29 23:17:00,43.5,34.0,30.03,SSW,200,0.0,-999.0,70,-99.99,,,0.01,weatherlink.com 1.10,2013-03-30 03:17:00,
2013-03-29 23:32:00,43.5,34.0,30.03,NW,320,3.0,-999.0,69,-99.99,,,0.01,weatherlink.com 1.10,2013-03-30 03:32:00,
2013-03-29 23:47:00,43.7,34.0,30.03,WNW,283,0.0,-999.0,69,-99.99,,,0.01,weatherlink.com 1.10,2013-03-30 03:47:00,